Time;durP1;ratioP1;P1;durP2;ratioP2;P2;SDS_P1;SDS_P2;PMS_P1;PMS_P2;Temp;Humidity;BMP_temperature;BMP_pressure;BME280_temperature;BME280_humidity;BME280_pressure;Samples;Min_cycle;Max_cycle;Signal;HPM_P1;HPM_P2
2021/09/21 00:01:46;;;;;;;11.35;10.35;;;;;;;12.24;67.04;100606.70;1777478;80;20944;-68
2021/09/21 00:04:13;;;;;;;11.55;10.35;;;;;;;12.24;66.95;100602.75;1776930;80;20952;-66
2021/09/21 00:06:40;;;;;;;10.60;9.50;;;;;;;12.24;67.07;100606.22;1776024;80;20944;-68
2021/09/21 00:09:07;;;;;;;12.00;9.80;;;;;;;12.23;67.05;100599.77;1775186;80;21103;-68
2021/09/21 00:11:35;;;;;;;14.25;10.45;;;;;;;12.22;67.21;100604.64;1775258;80;21527;-67
2021/09/21 00:14:03;;;;;;;10.80;9.73;;;;;;;12.22;67.35;100609.90;1775336;80;20888;-69
2021/09/21 00:16:32;;;;;;;10.90;9.65;;;;;;;12.22;67.35;100611.22;1775154;80;21410;-67
2021/09/21 00:19:00;;;;;;;12.55;10.50;;;;;;;12.21;67.36;100612.17;1775248;80;20869;-68
2021/09/21 00:21:29;;;;;;;11.45;10.25;;;;;;;12.19;67.41;100605.70;1775228;80;20920;-68
2021/09/21 00:23:57;;;;;;;12.88;10.55;;;;;;;12.19;67.42;100609.64;1775099;80;20992;-66
2021/09/21 00:26:24;;;;;;;12.88;11.57;;;;;;;12.18;67.68;100606.66;1775412;80;21347;-67
2021/09/21 00:28:52;;;;;;;12.50;11.30;;;;;;;12.16;67.75;100609.86;1775003;80;20963;-68
2021/09/21 00:31:21;;;;;;;12.95;11.53;;;;;;;12.14;67.92;100605.17;1775281;80;20869;-67
2021/09/21 00:33:51;;;;;;;12.53;10.95;;;;;;;12.13;68.04;100610.04;1775205;80;21492;-67
2021/09/21 00:36:17;;;;;;;12.70;10.93;;;;;;;12.10;68.14;100601.05;1775158;80;20923;-68
2021/09/21 00:38:45;;;;;;;11.95;10.75;;;;;;;12.10;68.25;100614.20;1781983;80;20848;-68
2021/09/21 00:41:12;;;;;;;13.05;11.78;;;;;;;12.08;68.46;100608.67;1783427;80;20881;-68
2021/09/21 00:43:39;;;;;;;12.13;11.03;;;;;;;12.06;68.50;100610.09;1783529;80;21453;-68
2021/09/21 00:46:06;;;;;;;14.55;10.68;;;;;;;12.06;68.63;100616.66;1783724;80;21107;-66
2021/09/21 00:48:35;;;;;;;13.35;11.15;;;;;;;12.03;68.56;100617.70;1783225;80;20876;-67
2021/09/21 00:51:02;;;;;;;11.43;10.32;;;;;;;12.03;68.52;100615.55;1783418;80;20861;-67
2021/09/21 00:53:29;;;;;;;11.78;10.68;;;;;;;12.02;68.50;100619.95;1783353;80;20892;-67
2021/09/21 00:55:57;;;;;;;13.48;12.10;;;;;;;12.00;68.45;100621.83;1753619;80;21437;-68
2021/09/21 00:58:24;;;;;;;14.95;12.58;;;;;;;11.98;68.43;100613.23;1783546;80;21517;-67
2021/09/21 01:00:53;;;;;;;13.70;11.35;;;;;;;11.98;68.44;100618.49;1783345;80;20900;-68
2021/09/21 01:03:19;;;;;;;14.18;12.63;;;;;;;11.97;68.45;100619.90;1783680;80;20932;-67
2021/09/21 01:05:48;;;;;;;14.53;12.78;;;;;;;11.97;68.55;100619.42;1751786;82;20924;-68
2021/09/21 01:08:15;;;;;;;14.15;12.75;;;;;;;11.95;68.75;100621.30;1751942;82;20924;-67
2021/09/21 01:10:41;;;;;;;15.05;12.85;;;;;;;11.95;68.83;100616.05;1751910;82;21503;-68
2021/09/21 01:13:09;;;;;;;19.15;14.20;;;;;;;11.95;68.93;100628.35;1751815;82;20991;-68
2021/09/21 01:15:36;;;;;;;18.20;14.93;;;;;;;11.94;69.18;100629.28;1751820;82;21488;-68
2021/09/21 01:18:03;;;;;;;17.12;14.25;;;;;;;11.92;69.27;100627.25;1751990;82;20924;-69
2021/09/21 01:20:30;;;;;;;15.68;14.07;;;;;;;11.93;69.24;100631.55;1751954;82;20939;-68
2021/09/21 01:22:57;;;;;;;14.53;12.95;;;;;;;11.91;69.35;100625.55;1751773;82;22103;-70
2021/09/21 01:25:26;;;;;;;14.33;12.82;;;;;;;11.91;69.35;100622.92;1751819;82;21576;-70
2021/09/21 01:27:54;;;;;;;14.23;12.68;;;;;;;11.90;69.32;100625.19;1751860;82;20916;-68
2021/09/21 01:30:21;;;;;;;15.83;13.20;;;;;;;11.90;69.30;100625.19;1727308;82;20956;-69
2021/09/21 01:32:48;;;;;;;13.93;12.45;;;;;;;11.89;69.30;100612.98;1752094;82;21534;-69
2021/09/21 01:35:15;;;;;;;15.72;13.65;;;;;;;11.90;69.35;100612.05;1751996;82;21597;-69
2021/09/21 01:37:48;;;;;;;16.57;14.30;;;;;;;11.89;69.42;100611.66;1775879;80;20908;-67
2021/09/21 01:40:14;;;;;;;15.15;13.55;;;;;;;11.89;69.50;100612.50;1775094;80;21381;-68
2021/09/21 01:42:46;;;;;;;15.53;13.83;;;;;;;11.89;69.51;100607.24;1775139;80;20932;-69
2021/09/21 01:45:14;;;;;;;13.08;11.60;;;;;;;11.90;69.65;100609.42;1775165;80;20869;-68
2021/09/21 01:47:44;;;;;;;14.68;13.00;;;;;;;11.88;69.65;100608.20;1775441;80;21717;-67
2021/09/21 01:52:31;;;;;;;14.58;13.05;;;;;;;11.92;70.04;100597.03;1798511;79;22475;-67
2021/09/21 01:55:05;;;;;;;15.28;13.75;;;;;;;11.88;70.15;100602.11;1756990;80;20876;-68
2021/09/21 02:00:05;;;;;;;18.05;14.50;;;;;;;11.86;70.40;100615.31;1758295;80;20994;-68
2021/09/21 02:02:34;;;;;;;14.80;13.13;;;;;;;11.86;70.47;100613.16;1749643;81;20880;-69
2021/09/21 02:05:01;;;;;;;15.85;14.25;;;;;;;11.84;70.52;100610.63;1749986;82;20932;-67
2021/09/21 02:07:29;;;;;;;15.58;13.90;;;;;;;11.86;70.58;100611.37;1750026;80;20929;-68
2021/09/21 02:09:57;;;;;;;15.23;13.72;;;;;;;11.84;70.55;100609.30;1750018;81;21268;-68
2021/09/21 02:12:24;;;;;;;16.32;14.63;;;;;;;11.85;70.59;100606.20;1749956;80;20968;-67
2021/09/21 02:14:52;;;;;;;18.60;14.87;;;;;;;11.85;70.66;100604.89;1750083;82;20912;-68
2021/09/21 02:17:22;;;;;;;15.93;14.33;;;;;;;11.85;70.73;100607.07;1749884;82;20931;-68
2021/09/21 02:19:49;;;;;;;15.30;13.58;;;;;;;11.85;70.83;100608.38;1750084;82;21346;-67
2021/09/21 02:22:17;;;;;;;18.17;14.20;;;;;;;11.87;70.91;100604.32;1750003;82;21559;-66
2021/09/21 02:24:44;;;;;;;14.98;13.15;;;;;;;11.87;71.13;100599.90;1749873;82;20963;-68
2021/09/21 02:27:10;;;;;;;18.45;13.88;;;;;;;11.88;71.22;100604.26;1749901;82;21415;-67
2021/09/21 02:29:37;;;;;;;17.62;13.85;;;;;;;11.90;71.19;100601.06;1750105;82;21350;-68
2021/09/21 02:32:05;;;;;;;16.57;14.85;;;;;;;11.92;71.14;100595.23;1750006;82;20987;-68
2021/09/21 02:34:32;;;;;;;17.55;15.30;;;;;;;11.94;71.20;100595.98;1749882;82;21420;-69
2021/09/21 02:36:59;;;;;;;16.87;14.75;;;;;;;11.97;71.27;100597.08;1749797;80;20901;-68
2021/09/21 02:39:26;;;;;;;14.85;12.65;;;;;;;11.99;71.20;100599.14;1749748;80;21805;-69
2021/09/21 02:41:53;;;;;;;15.28;13.53;;;;;;;12.00;71.31;100598.17;1750107;80;20932;-68
2021/09/21 02:44:20;;;;;;;16.97;12.98;;;;;;;12.01;71.24;100589.84;1749993;81;20873;-68
2021/09/21 02:46:47;;;;;;;16.20;13.50;;;;;;;12.02;71.06;100591.03;1750253;80;21961;-69
2021/09/21 02:49:14;;;;;;;16.02;14.13;;;;;;;12.02;71.01;100591.52;1750038;82;21022;-68
2021/09/21 02:51:41;;;;;;;15.45;13.75;;;;;;;12.03;71.12;100591.42;1742224;81;20928;-69
2021/09/21 02:54:10;;;;;;;16.55;14.10;;;;;;;12.07;71.07;100595.15;1736575;82;20861;-68
2021/09/21 02:56:39;;;;;;;15.38;13.05;;;;;;;12.09;71.00;100597.20;1736667;81;21442;-67
2021/09/21 02:59:06;;;;;;;15.93;14.00;;;;;;;12.09;71.14;100591.95;1736809;81;21126;-68
2021/09/21 03:01:33;;;;;;;15.43;13.18;;;;;;;12.10;71.03;100593.17;1736662;82;20908;-68
2021/09/21 03:04:05;;;;;;;14.07;12.58;;;;;;;12.09;70.98;100591.47;1736188;82;20897;-67
2021/09/21 03:06:32;;;;;;;18.37;16.02;;;;;;;12.08;71.02;100587.17;1735774;82;20925;-67
2021/09/21 03:09:19;;;;;;;14.58;13.08;;;;;;;12.10;71.21;100588.39;1735923;82;21478;-67
2021/09/21 03:11:46;;;;;;;15.25;12.65;;;;;;;12.11;71.21;100588.75;1734786;81;21098;-68
2021/09/21 03:19:24;;;;;;;15.38;12.98;;;;;;;12.11;71.02;100589.58;1736117;82;20976;-68
2021/09/21 03:21:54;;;;;;;15.35;12.40;;;;;;;12.13;71.07;100585.06;1736236;81;20901;-69
2021/09/21 03:24:22;;;;;;;14.87;12.93;;;;;;;12.17;71.18;100590.97;1736040;82;21163;-68
2021/09/21 03:26:49;;;;;;;15.72;13.45;;;;;;;12.20;71.16;100593.38;1736459;82;21020;-70
2021/09/21 03:29:17;;;;;;;14.58;13.05;;;;;;;12.25;71.04;100595.25;1737182;82;20992;-68
2021/09/21 03:31:45;;;;;;;13.90;12.50;;;;;;;12.28;70.85;100596.34;1738209;82;20953;-67
2021/09/21 03:34:12;;;;;;;15.98;13.50;;;;;;;12.32;70.89;100599.63;1737266;82;20932;-69
2021/09/21 03:36:39;;;;;;;15.20;12.30;;;;;;;12.36;70.79;100605.02;1736608;82;21928;-68
2021/09/21 03:39:06;;;;;;;16.60;12.40;;;;;;;12.38;70.63;100602.68;1736216;82;20933;-68
2021/09/21 03:41:33;;;;;;;13.72;12.35;;;;;;;12.42;70.34;100599.34;1736188;81;20932;-68
2021/09/21 03:43:59;;;;;;;16.60;13.53;;;;;;;12.43;70.41;100595.31;1736093;81;20874;-69
2021/09/21 03:46:26;;;;;;;14.07;12.68;;;;;;;12.45;70.43;100596.53;1736266;82;20992;-69
2021/09/21 03:48:56;;;;;;;16.20;14.30;;;;;;;12.46;70.40;100599.99;1736240;82;21328;-69
2021/09/21 03:51:21;;;;;;;15.18;13.68;;;;;;;12.47;70.38;100591.14;1740430;80;21327;-69
2021/09/21 03:53:48;;;;;;;19.25;13.78;;;;;;;12.46;70.40;100587.67;1750262;80;20936;-69
2021/09/21 03:56:16;;;;;;;16.40;13.80;;;;;;;12.47;70.46;100601.19;1750109;82;20947;-70
2021/09/21 03:58:44;;;;;;;17.65;13.20;;;;;;;12.47;70.51;100597.23;1750413;82;20979;-68
2021/09/21 04:01:10;;;;;;;18.40;14.30;;;;;;;12.46;70.28;100595.57;1750485;82;22072;-70
2021/09/21 04:03:37;;;;;;;16.93;14.00;;;;;;;12.45;70.18;100595.22;1750163;82;20964;-69
2021/09/21 04:06:05;;;;;;;16.85;14.23;;;;;;;12.46;70.28;100592.11;1750211;82;20940;-69
2021/09/21 04:08:34;;;;;;;17.25;14.23;;;;;;;12.48;70.10;100592.36;1750026;82;21421;-69
2021/09/21 04:11:00;;;;;;;17.48;14.28;;;;;;;12.51;70.25;100589.99;1750372;82;20825;-69
2021/09/21 04:13:29;;;;;;;19.80;14.70;;;;;;;12.53;70.14;100591.56;1749928;80;20884;-69
2021/09/21 04:15:55;;;;;;;20.37;14.50;;;;;;;12.58;69.89;100588.62;1750336;82;20904;-69
2021/09/21 04:18:22;;;;;;;19.32;14.23;;;;;;;12.60;69.85;100587.55;1749980;82;20928;-69
2021/09/21 04:20:49;;;;;;;17.07;14.35;;;;;;;12.65;69.83;100592.53;1750350;80;21046;-70
2021/09/21 04:23:16;;;;;;;16.90;14.60;;;;;;;12.69;69.80;100590.03;1749960;80;21046;-71
2021/09/21 04:25:43;;;;;;;21.87;14.33;;;;;;;12.72;69.67;100585.89;1750341;82;21553;-72
2021/09/21 04:28:10;;;;;;;18.87;12.95;;;;;;;12.75;69.59;100586.14;1750031;80;21011;-72
2021/09/21 04:30:37;;;;;;;15.90;13.18;;;;;;;12.78;69.58;100585.47;1750219;82;21398;-72
2021/09/21 04:33:06;;;;;;;14.58;12.53;;;;;;;12.81;69.59;100589.19;1749281;80;20978;-72
2021/09/21 04:35:37;;;;;;;14.75;12.35;;;;;;;12.84;69.62;100582.38;1750107;82;21007;-73
2021/09/21 04:38:05;;;;;;;14.15;11.80;;;;;;;12.88;69.33;100583.50;1750052;82;21489;-71
2021/09/21 04:40:32;;;;;;;19.30;13.00;;;;;;;12.89;69.28;100582.55;1750177;82;20916;-71
2021/09/21 04:42:59;;;;;;;14.47;12.50;;;;;;;12.90;69.42;100592.97;1749968;80;21354;-69
2021/09/21 04:45:27;;;;;;;23.60;13.85;;;;;;;12.96;69.50;100587.73;1749973;80;21454;-70
2021/09/21 04:47:55;;;;;;;13.13;11.40;;;;;;;13.09;69.26;100586.39;1750106;82;20932;-70
2021/09/21 04:50:22;;;;;;;11.88;10.53;;;;;;;13.41;69.09;100584.97;1750037;80;21537;-70
2021/09/21 04:52:51;;;;;;;15.68;11.33;;;;;;;14.00;68.05;100578.86;1749786;80;20881;-70
2021/09/21 04:55:18;;;;;;;13.62;11.20;;;;;;;14.56;66.25;100576.01;1750241;80;21378;-71
2021/09/21 04:57:45;;;;;;;18.15;12.55;;;;;;;14.84;64.35;100576.85;1750152;82;20936;-72
2021/09/21 05:00:14;;;;;;;13.60;12.07;;;;;;;14.95;63.49;100581.78;1750033;82;20880;-73
2021/09/21 05:02:41;;;;;;;11.28;10.03;;;;;;;14.93;63.07;100587.17;1750102;82;21519;-72
2021/09/21 05:05:09;;;;;;;13.20;11.57;;;;;;;14.85;62.62;100581.19;1750100;80;20967;-74
2021/09/21 05:07:38;;;;;;;13.20;10.65;;;;;;;14.76;62.67;100582.38;1749884;82;21034;-73
2021/09/21 05:10:07;;;;;;;13.08;10.50;;;;;;;14.67;62.64;100589.20;1749430;82;20971;-73
2021/09/21 05:12:34;;;;;;;14.83;10.75;;;;;;;14.59;62.83;100590.30;1749671;82;21046;-75
2021/09/21 05:15:02;;;;;;;11.60;10.05;;;;;;;14.51;62.97;100589.04;1750050;82;21234;-75
2021/09/21 05:17:30;;;;;;;13.22;11.33;;;;;;;14.47;63.00;100590.26;1749986;82;20916;-73
2021/09/21 05:19:56;;;;;;;13.15;10.60;;;;;;;14.41;62.96;100588.57;1750225;80;20955;-75
2021/09/21 05:22:25;;;;;;;23.00;12.47;;;;;;;14.38;62.77;100594.89;1749927;82;20952;-72
2021/09/21 05:24:52;;;;;;;14.50;12.58;;;;;;;14.36;62.91;100592.02;1750428;82;20920;-73
2021/09/21 05:27:19;;;;;;;16.62;12.28;;;;;;;14.34;62.96;100593.47;1750043;82;21658;-72
2021/09/21 05:29:48;;;;;;;11.40;9.88;;;;;;;14.32;63.05;100594.06;1749860;80;20963;-73
2021/09/21 05:32:15;;;;;;;14.45;11.78;;;;;;;14.30;63.00;100590.70;1749893;82;20979;-74
2021/09/21 05:34:42;;;;;;;16.37;12.80;;;;;;;14.29;62.97;100592.51;1750239;82;20920;-68
2021/09/21 05:37:09;;;;;;;15.88;12.23;;;;;;;14.42;62.95;100592.87;1750160;82;20849;-72
2021/09/21 05:39:36;;;;;;;13.08;11.78;;;;;;;14.81;62.91;100588.98;1750531;82;21476;-70
2021/09/21 05:42:03;;;;;;;15.53;13.45;;;;;;;15.44;61.86;100587.93;1749944;82;21387;-70
2021/09/21 05:44:31;;;;;;;13.40;11.95;;;;;;;16.12;60.04;100584.57;1750000;82;20852;-70
2021/09/21 05:46:59;;;;;;;15.18;12.05;;;;;;;16.67;58.31;100576.36;1749931;82;21362;-71
2021/09/21 05:49:27;;;;;;;18.37;13.25;;;;;;;17.02;57.01;100576.95;1750097;82;20976;-70
2021/09/21 05:51:54;;;;;;;16.67;13.13;;;;;;;17.16;56.11;100585.38;1749699;80;21805;-71
2021/09/21 05:54:21;;;;;;;13.25;12.00;;;;;;;17.17;55.79;100584.88;1749506;82;20880;-70
2021/09/21 05:56:48;;;;;;;14.43;12.93;;;;;;;17.11;55.50;100582.27;1749824;82;21027;-70
2021/09/21 05:59:14;;;;;;;14.95;12.37;;;;;;;16.94;55.42;100584.23;1750237;82;21003;-72
2021/09/21 06:01:43;;;;;;;12.95;11.55;;;;;;;16.73;55.79;100576.33;1749983;80;20991;-71
2021/09/21 06:04:13;;;;;;;13.62;12.23;;;;;;;16.57;56.14;100575.00;1749943;80;21514;-70
2021/09/21 06:06:40;;;;;;;12.75;10.82;;;;;;;16.43;56.38;100576.69;1749970;80;20841;-71
2021/09/21 06:09:08;;;;;;;14.25;11.73;;;;;;;16.32;56.61;100580.24;1750065;82;20861;-71
2021/09/21 06:11:36;;;;;;;14.35;12.78;;;;;;;16.24;56.85;100576.56;1749943;82;20964;-71
2021/09/21 06:14:04;;;;;;;14.05;12.55;;;;;;;16.24;57.13;100576.56;1749985;80;21366;-70
2021/09/21 06:16:31;;;;;;;12.85;11.22;;;;;;;16.34;57.24;100578.31;1749930;80;21126;-71
2021/09/21 06:19:00;;;;;;;12.30;11.00;;;;;;;16.57;57.04;100582.11;1750035;82;20929;-70
2021/09/21 06:21:27;;;;;;;12.25;11.05;;;;;;;16.78;56.44;100582.92;1749972;82;20961;-69
2021/09/21 06:23:55;;;;;;;14.98;11.28;;;;;;;17.02;56.12;100583.09;1750346;82;20991;-69
2021/09/21 06:26:22;;;;;;;14.35;11.43;;;;;;;17.23;55.71;100582.16;1749937;80;20924;-69
2021/09/21 06:28:49;;;;;;;10.40;8.98;;;;;;;17.36;55.38;100582.75;1750050;82;21137;-71
2021/09/21 06:31:16;;;;;;;12.60;9.15;;;;;;;17.42;54.90;100582.20;1750003;82;21421;-72
2021/09/21 06:33:44;;;;;;;11.38;9.38;;;;;;;17.36;54.76;100581.42;1750187;82;21508;-69
2021/09/21 06:36:13;;;;;;;10.08;8.95;;;;;;;17.17;54.81;100586.21;1750023;82;21346;-70
2021/09/21 06:38:41;;;;;;;11.03;10.03;;;;;;;16.90;55.32;100592.95;1750394;82;20935;-70
2021/09/21 06:41:08;;;;;;;12.68;11.63;;;;;;;16.58;55.68;100591.27;1750134;80;21066;-71
2021/09/21 06:43:34;;;;;;;11.10;10.00;;;;;;;16.30;56.14;100587.47;1750292;82;20917;-69
2021/09/21 06:46:02;;;;;;;12.13;11.03;;;;;;;16.05;56.74;100586.52;1750036;82;20964;-70
2021/09/21 06:48:29;;;;;;;11.45;10.20;;;;;;;15.89;57.44;100586.47;1750394;80;20936;-71
2021/09/21 06:50:56;;;;;;;12.25;11.15;;;;;;;16.04;59.07;100592.30;1750258;80;20940;-71
2021/09/21 06:53:23;;;;;;;12.85;11.63;;;;;;;16.04;59.07;100592.30;1739584;81;21403;-69
2021/09/21 06:55:50;;;;;;;11.83;10.63;;;;;;;16.40;58.38;100593.30;1736141;82;20893;-70
2021/09/21 06:58:17;;;;;;;10.78;9.68;;;;;;;16.95;57.96;100591.23;1736575;82;21466;-70
2021/09/21 07:00:46;;;;;;;11.18;9.40;;;;;;;17.44;56.42;100599.31;1736611;82;20944;-70
2021/09/21 07:03:14;;;;;;;16.23;11.83;;;;;;;17.91;55.10;100595.53;1736280;82;21525;-70
2021/09/21 07:05:41;;;;;;;11.38;10.28;;;;;;;18.11;53.08;100587.89;1736080;81;21539;-70
2021/09/21 07:08:08;;;;;;;11.83;8.58;;;;;;;18.19;52.88;100596.00;1736413;82;20909;-70
2021/09/21 07:10:36;;;;;;;14.40;9.65;;;;;;;18.25;52.37;100595.90;1736165;82;20933;-71
2021/09/21 07:13:05;;;;;;;15.98;9.40;;;;;;;18.32;51.76;100586.88;1736071;81;20937;-71
2021/09/21 07:15:33;;;;;;;8.68;7.00;;;;;;;18.28;52.05;100592.98;1736225;82;20833;-70
2021/09/21 07:18:00;;;;;;;5.85;4.67;;;;;;;18.40;52.45;100590.98;1736125;82;21941;-71
2021/09/21 07:20:27;;;;;;;6.58;4.03;;;;;;;18.63;50.68;100584.36;1736246;81;20881;-71
2021/09/21 07:22:54;;;;;;;13.13;5.12;;;;;;;18.77;49.70;100593.70;1736406;82;21466;-70
2021/09/21 07:25:21;;;;;;;11.35;4.78;;;;;;;18.79;49.23;100590.91;1736095;81;20885;-70
2021/09/21 07:27:48;;;;;;;5.50;3.95;;;;;;;18.78;49.74;100591.38;1736517;82;20965;-70
2021/09/21 07:30:17;;;;;;;6.87;3.85;;;;;;;18.75;50.07;100583.68;1736215;82;20968;-70
2021/09/21 07:32:44;;;;;;;7.08;4.28;;;;;;;18.68;49.82;100585.25;1736195;81;20949;-71
2021/09/21 07:35:11;;;;;;;3.75;3.35;;;;;;;18.56;50.42;100588.55;1736083;82;20897;-70
2021/09/21 07:37:38;;;;;;;4.20;3.12;;;;;;;18.37;50.62;100589.96;1736256;81;20977;-69
2021/09/21 07:40:07;;;;;;;8.00;3.40;;;;;;;18.26;51.37;100590.13;1736123;81;20948;-70
2021/09/21 07:42:34;;;;;;;5.30;3.83;;;;;;;18.20;51.88;100588.86;1736370;81;21130;-70
2021/09/21 07:45:01;;;;;;;6.10;3.90;;;;;;;18.12;51.41;100581.62;1736147;82;20925;-69
2021/09/21 07:47:29;;;;;;;7.33;4.05;;;;;;;17.95;50.98;100577.03;1736097;82;20956;-70
2021/09/21 07:49:56;;;;;;;7.95;4.90;;;;;;;17.88;50.59;100578.58;1736051;82;21521;-69
2021/09/21 07:52:23;;;;;;;6.78;5.55;;;;;;;17.81;50.67;100584.44;1736066;81;20854;-71
2021/09/21 07:54:51;;;;;;;10.32;5.15;;;;;;;17.70;50.67;100579.23;1736188;82;21138;-69
2021/09/21 07:57:18;;;;;;;6.65;5.70;;;;;;;17.57;50.60;100577.34;1736118;81;21509;-69
2021/09/21 07:59:46;;;;;;;7.80;5.05;;;;;;;17.42;50.84;100582.20;1736164;82;20897;-69
2021/09/21 08:02:13;;;;;;;9.93;5.97;;;;;;;17.26;51.30;100572.63;1736086;81;21379;-70
2021/09/21 08:04:43;;;;;;;10.80;5.42;;;;;;;17.09;51.63;100582.06;1736175;82;20850;-69
2021/09/21 08:07:10;;;;;;;10.00;6.08;;;;;;;16.88;51.90;100585.63;1736042;82;21565;-70
2021/09/21 08:09:38;;;;;;;8.03;5.20;;;;;;;16.68;52.76;100583.84;1735984;81;20953;-69
2021/09/21 08:12:06;;;;;;;6.70;5.15;;;;;;;16.46;53.22;100588.81;1736180;81;20986;-69
2021/09/21 08:14:36;;;;;;;4.67;4.15;;;;;;;16.23;53.59;100581.48;1736140;82;20917;-69
2021/09/21 08:17:05;;;;;;;5.53;4.17;;;;;;;16.01;54.31;100587.28;1736066;82;21004;-68
2021/09/21 08:19:32;;;;;;;7.62;4.12;;;;;;;15.85;55.05;100589.50;1736091;81;21170;-69
2021/09/21 08:21:58;;;;;;;3.33;3.10;;;;;;;15.66;55.56;100584.38;1736002;82;20915;-67
2021/09/21 08:24:27;;;;;;;7.22;3.77;;;;;;;15.49;55.72;100588.39;1736119;82;20869;-70
2021/09/21 08:26:54;;;;;;;6.22;3.67;;;;;;;15.34;56.20;100584.38;1736046;82;20877;-69
2021/09/21 08:29:21;;;;;;;8.60;3.75;;;;;;;15.26;57.11;100582.82;1736122;82;20900;-69
2021/09/21 08:31:49;;;;;;;5.47;3.40;;;;;;;15.23;57.45;100583.91;1736205;82;21851;-70
2021/09/21 08:34:16;;;;;;;6.62;3.58;;;;;;;15.19;57.45;100579.83;1736102;82;20984;-69
2021/09/21 08:36:43;;;;;;;5.20;3.42;;;;;;;15.18;57.19;100586.05;1736163;81;20893;-70
2021/09/21 08:39:11;;;;;;;4.25;3.85;;;;;;;15.21;57.89;100587.64;1735916;82;21045;-69
2021/09/21 08:41:39;;;;;;;4.03;3.55;;;;;;;15.24;57.96;100586.89;1736267;82;20968;-69
2021/09/21 08:44:06;;;;;;;2.87;2.55;;;;;;;15.27;57.50;100583.16;1736002;82;21983;-68
2021/09/21 08:46:35;;;;;;;3.17;2.90;;;;;;;15.30;56.80;100580.30;1736105;81;20968;-69
2021/09/21 08:49:03;;;;;;;2.83;2.62;;;;;;;15.34;56.59;100585.20;1736347;81;21402;-70
2021/09/21 08:51:29;;;;;;;3.62;3.25;;;;;;;15.41;56.01;100585.55;1736238;82;20909;-70
2021/09/21 08:53:56;;;;;;;2.55;2.35;;;;;;;15.50;55.89;100587.93;1741737;81;20936;-68
2021/09/21 08:56:23;;;;;;;2.75;2.17;;;;;;;15.61;55.39;100589.70;1744478;81;22145;-68
2021/09/21 08:59:07;;;;;;;1.82;1.67;;;;;;;15.61;55.39;100589.70;1744235;82;20896;-69
2021/09/21 09:01:42;;;;;;;;;;;;;;;15.67;54.77;100585.21;1747131;82;20995;-67
2021/09/21 09:04:09;;;;;;;3.10;2.13;;;;;;;15.73;54.17;100587.39;1744429;82;20410;-67
2021/09/21 09:06:49;;;;;;;4.42;2.22;;;;;;;15.74;53.95;100590.41;1744329;82;20987;-67
2021/09/21 09:09:23;;;;;;;2.52;2.30;;;;;;;15.78;53.77;100587.02;1744281;82;21120;-67
2021/09/21 09:11:53;;;;;;;2.30;2.10;;;;;;;15.76;53.69;100591.09;1744222;82;20833;-68
2021/09/21 09:14:25;;;;;;;2.75;2.55;;;;;;;15.71;53.80;100586.67;1744400;82;20877;-68
2021/09/21 09:16:54;;;;;;;10.78;3.22;;;;;;;15.64;54.06;100588.95;1744440;81;21061;-67
2021/09/21 09:19:35;;;;;;;4.15;2.87;;;;;;;15.58;54.06;100587.29;1744539;82;21315;-67
2021/09/21 09:22:17;;;;;;;5.35;3.10;;;;;;;15.50;54.00;100583.97;1744041;82;21169;-67
2021/09/21 09:24:51;;;;;;;4.20;2.70;;;;;;;15.57;54.04;100587.78;1744314;81;20881;-66
2021/09/21 09:27:20;;;;;;;3.15;1.72;;;;;;;16.04;54.14;100590.98;1741638;82;21374;-67
2021/09/21 09:29:59;;;;;;;3.55;2.60;;;;;;;16.82;53.38;100587.48;1744528;81;21000;-67
2021/09/21 09:32:26;;;;;;;10.85;4.53;;;;;;;17.64;51.19;100580.28;1743704;82;20937;-69
2021/09/21 09:34:58;;;;;;;7.25;4.53;;;;;;;18.40;48.88;100585.18;1744246;81;21160;-67
2021/09/21 09:37:39;;;;;;;8.63;4.75;;;;;;;18.70;48.01;100583.75;1716532;82;20975;-67
2021/09/21 09:40:10;;;;;;;8.88;3.98;;;;;;;18.81;47.28;100581.80;1744204;82;20935;-65
2021/09/21 09:42:42;;;;;;;6.78;3.70;;;;;;;18.78;46.68;100586.06;1744385;82;20956;-69
2021/09/21 09:45:10;;;;;;;4.60;1.98;;;;;;;18.61;47.05;100594.30;1744202;81;20920;-67
2021/09/21 09:47:50;;;;;;;5.05;1.80;;;;;;;18.34;47.38;100604.83;1744422;82;21805;-67
2021/09/21 09:50:18;;;;;;;2.22;0.80;;;;;;;17.98;49.90;100616.54;1744272;82;20932;-68
2021/09/21 09:52:44;;;;;;;0.88;0.78;;;;;;;17.39;52.33;100627.56;1744652;81;20960;-68
2021/09/21 09:55:13;;;;;;;1.02;0.93;;;;;;;16.85;54.14;100626.96;1750072;82;21406;-68
2021/09/21 09:57:41;;;;;;;1.80;0.98;;;;;;;16.39;55.66;100624.72;1750095;82;20880;-69
2021/09/21 10:00:12;;;;;;;1.20;0.78;;;;;;;16.01;57.01;100626.95;1750068;82;20916;-69
2021/09/21 10:02:39;;;;;;;2.92;1.55;;;;;;;15.69;58.02;100633.03;1750344;82;20983;-65
2021/09/21 10:05:08;;;;;;;3.22;1.50;;;;;;;15.41;59.29;100637.08;1749924;82;20984;-65
2021/09/21 10:07:37;;;;;;;1.15;0.85;;;;;;;15.20;60.68;100636.14;1723217;82;20995;-66
2021/09/21 10:10:05;;;;;;;1.45;1.35;;;;;;;15.02;61.40;100642.39;1750075;82;20908;-65
2021/09/21 10:12:32;;;;;;;4.78;1.12;;;;;;;14.90;62.26;100645.03;1750124;80;21094;-65
2021/09/21 10:14:59;;;;;;;1.35;1.25;;;;;;;14.82;62.71;100651.38;1750108;82;21015;-65
2021/09/21 10:17:27;;;;;;;4.08;1.75;;;;;;;14.79;63.33;100649.47;1750409;80;21386;-66
2021/09/21 10:19:56;;;;;;;1.12;1.10;;;;;;;14.62;63.93;100662.15;1677053;82;20876;-65
2021/09/21 10:22:30;;;;;;;1.22;1.12;;;;;;;14.52;63.85;100663.80;1750168;82;20841;-65
2021/09/21 10:25:08;;;;;;;1.85;1.00;;;;;;;14.52;63.85;100663.80;1750198;80;20960;-65
2021/09/21 10:27:36;;;;;;;1.45;0.88;;;;;;;14.39;63.48;100669.63;1750028;82;21014;-67
2021/09/21 10:30:09;;;;;;;4.53;1.00;;;;;;;14.23;63.88;100672.09;1752686;82;20920;-64
2021/09/21 10:32:46;;;;;;;1.10;1.00;;;;;;;14.13;63.90;100676.84;1751351;82;21434;-64
2021/09/21 10:35:17;;;;;;;0.70;0.70;;;;;;;14.02;64.27;100682.91;1750514;80;21563;-66
2021/09/21 10:37:59;;;;;;;2.10;1.37;;;;;;;13.94;64.47;100690.08;1750398;82;20948;-66
2021/09/21 10:40:41;;;;;;;1.60;1.25;;;;;;;13.98;65.23;100688.87;1749986;82;20979;-64
2021/09/21 10:43:31;;;;;;;3.10;1.57;;;;;;;13.98;65.23;100688.87;1750228;82;20948;-69
2021/09/21 10:46:22;;;;;;;2.80;1.20;;;;;;;14.04;65.01;100685.79;1750167;80;20849;-68
2021/09/21 10:48:45;;;;;;;2.08;0.95;;;;;;;14.18;64.63;100690.04;1748234;82;20900;-68
2021/09/21 10:51:12;;;;;;;2.08;1.60;;;;;;;14.25;63.60;100689.97;1750609;82;21913;-68
2021/09/21 10:53:40;;;;;;;1.30;1.20;;;;;;;14.23;62.39;100691.88;1750152;80;20888;-67
2021/09/21 10:56:11;;;;;;;1.70;1.00;;;;;;;14.18;62.17;100683.45;1750027;80;21416;-67
2021/09/21 10:58:41;;;;;;;2.25;1.40;;;;;;;14.16;62.69;100688.47;1749815;82;20967;-66
2021/09/21 11:01:10;;;;;;;2.77;1.72;;;;;;;14.17;62.67;100684.91;1699720;82;20928;-67
2021/09/21 11:03:39;;;;;;;1.85;1.75;;;;;;;14.23;62.57;100682.65;1750325;80;21151;-67
2021/09/21 11:06:06;;;;;;;2.15;2.05;;;;;;;14.32;62.23;100690.36;1750059;82;20928;-68
2021/09/21 11:08:34;;;;;;;5.30;2.87;;;;;;;14.36;61.89;100689.62;1750445;80;21279;-67
2021/09/21 11:11:04;;;;;;;3.22;2.90;;;;;;;14.35;61.53;100689.28;1750183;82;20841;-69
2021/09/21 11:13:40;;;;;;;1.80;1.70;;;;;;;14.34;61.96;100691.55;1749870;82;20837;-68
2021/09/21 11:16:12;;;;;;;1.87;1.77;;;;;;;14.28;62.18;100698.97;1750169;82;20979;-67
2021/09/21 11:18:43;;;;;;;3.50;2.20;;;;;;;14.19;62.48;100694.37;1749722;81;21549;-69
2021/09/21 11:21:10;;;;;;;1.80;1.70;;;;;;;14.07;62.65;100696.13;1750125;81;20979;-67
2021/09/21 11:23:40;;;;;;;1.62;1.52;;;;;;;13.93;62.43;100701.55;1749964;82;20983;-67
2021/09/21 11:26:11;;;;;;;1.40;1.40;;;;;;;13.79;62.71;100706.52;1750230;82;20975;-65
2021/09/21 11:28:44;;;;;;;1.65;1.55;;;;;;;13.72;63.03;100704.41;1750047;80;21386;-67
2021/09/21 11:31:11;;;;;;;2.60;2.37;;;;;;;13.64;63.39;100712.41;1750451;82;20880;-66
2021/09/21 11:33:40;;;;;;;3.10;2.80;;;;;;;13.56;63.42;100717.40;1750234;81;21015;-65